Главная страница
METAR-TAF:

METAR-TAF

Аэропорты :

Батман, Турция

широта: 37-52N, долгота: 041-10E, высота над уровнем моря: 540 м

Текущие метеонаблюдения

Эта сводка был подготовлена 25 минут назад, в 21:20 UTC
Ветер 4 Узел от северо-восточный
Температура 18°C
Влажность 56%
Давление 1009 hPa
Видимость 10 км и более
Нет облачности ниже 1500 м, и нет кучево-дождевой облачности

METAR: LTCJ 192120Z 04004KT CAVOK 18/09 Q1009 RMK RWY20 09003KT SKC

Время: 00:45 (21:45 UTC)

Прогноз

Эта сводка был подготовлена 5 часа и 5 минут назад, в 16:40 UTC
Прогноз действительный с 19-го 18 UTC до 20-го 18 UTC
Ветер 2 Узел переменных направлений
Видимость 10 км и более
Нет облачности ниже 1500 м, и нет кучево-дождевой облачности

TAF: LTCJ 191640Z 1918/2018 VRB02KT CAVOK

Метеонаблюдения и прогнозы для более 4000 аэропортов (сводки METAR и TAF).

Имеющиеся станции представлены на карте желтыми и красными точками.

Чтобы увидеть название станции, наведите на нее мышь.

Затем щелкните, чтобы увидеть метеонаблюдения и метеопрогнозы.

Управление картой: чтобы увеличить масштаб, щелкните зеленые кнопки с черным крестиком; чтобы уменьшить масштаб, щелкните зеленую кнопку с тире; для просмотра соседних карт щелкайте зеленые стрелки.


METAR-TAF: